Time;durP1;ratioP1;P1;durP2;ratioP2;P2;SDS_P1;SDS_P2;PMS_P1;PMS_P2;Temp;Humidity;BMP_temperature;BMP_pressure;BME280_temperature;BME280_humidity;BME280_pressure;Samples;Min_cycle;Max_cycle;Signal;HPM_P1;HPM_P2
2022/02/04 00:07:39;;;;;;;2.35;1.05;;;3.40;97.00;;;;;;2089146;28;20663;-74
2022/02/04 00:21:40;;;;;;;1.42;1.15;;;3.40;98.40;;;;;;2096257;28;20703;-74
2022/02/04 00:23:43;;;;;;;1.63;1.23;;;3.30;99.90;;;;;;2096539;28;20194;-75
2022/02/04 00:24:44;;;;;;;1.50;1.00;;;3.30;99.90;;;;;;2096880;28;20205;-75
2022/02/04 00:25:55;;;;;;;1.17;1.05;;;3.10;99.90;;;;;;2087897;28;20720;-74
2022/02/04 00:27:03;;;;;;;1.02;0.90;;;3.10;99.90;;;;;;2082787;28;20167;-74
2022/02/04 00:28:24;;;;;;;1.38;1.10;;;2.90;99.90;;;;;;2090462;28;20185;-74
2022/02/04 00:29:31;;;;;;;1.08;0.90;;;2.90;99.90;;;;;;2091739;28;20178;-74
2022/02/04 00:30:38;;;;;;;1.27;1.00;;;2.90;99.90;;;;;;2096678;28;20194;-75
2022/02/04 00:31:50;;;;;;;1.45;0.98;;;2.80;99.90;;;;;;2096388;28;20260;-75
2022/02/04 00:32:53;;;;;;;2.03;1.08;;;2.70;99.90;;;;;;2090653;28;20258;-74
2022/02/04 00:33:58;;;;;;;0.93;0.80;;;2.60;99.90;;;;;;2096352;28;20556;-74
2022/02/04 00:35:13;;;;;;;1.73;1.05;;;2.40;99.90;;;;;;2096237;28;20176;-75
2022/02/04 00:37:26;;;;;;;1.77;1.20;;;2.30;99.90;;;;;;2097099;28;20712;-75
2022/02/04 00:38:34;;;;;;;2.92;1.20;;;2.30;99.90;;;;;;2096435;28;20192;-74
2022/02/04 00:39:43;;;;;;;1.77;1.20;;;2.20;99.90;;;;;;2087886;28;20185;-75
2022/02/04 00:40:48;;;;;;;2.25;1.23;;;2.10;99.90;;;;;;2091457;28;20641;-75
2022/02/04 00:41:50;;;;;;;3.28;1.38;;;2.00;99.90;;;;;;2096241;28;20204;-74
2022/02/04 00:42:53;;;;;;;1.48;1.15;;;1.90;99.90;;;;;;2096344;28;20180;-74
2022/02/04 00:43:56;;;;;;;1.60;1.25;;;1.80;99.90;;;;;;2088448;28;20552;-75
2022/02/04 00:45:11;;;;;;;1.70;1.20;;;1.80;99.90;;;;;;2087744;28;20209;-74
2022/02/04 00:46:20;;;;;;;1.35;1.10;;;1.70;99.90;;;;;;2090203;28;20168;-74
2022/02/04 00:47:24;;;;;;;1.65;0.95;;;1.60;99.90;;;;;;2098180;28;20239;-74
2022/02/04 00:51:11;;;;;;;1.45;1.05;;;1.50;99.90;;;;;;2097993;28;20251;-75
2022/02/04 00:52:24;;;;;;;2.00;1.33;;;1.50;99.90;;;;;;2093943;28;20262;-74
2022/02/04 00:53:34;;;;;;;1.80;1.45;;;1.50;99.90;;;;;;2098208;28;20164;-74
2022/02/04 01:26:22;;;;;;;9.35;5.60;;;2.40;99.90;;;;;;2097625;28;20173;-75
2022/02/04 01:27:22;;;;;;;8.40;5.73;;;2.50;99.90;;;;;;2097613;28;20280;-75
2022/02/04 01:28:26;;;;;;;10.27;6.13;;;2.60;99.90;;;;;;2098202;28;20190;-74
2022/02/04 01:29:31;;;;;;;8.55;5.72;;;2.60;99.90;;;;;;2097326;28;20168;-75
2022/02/04 01:30:34;;;;;;;8.88;6.10;;;2.70;99.90;;;;;;2097581;28;20209;-74
2022/02/04 01:31:35;;;;;;;8.27;5.38;;;2.70;99.90;;;;;;2097375;28;20177;-75
2022/02/04 01:32:35;;;;;;;7.17;5.10;;;2.80;99.90;;;;;;2097691;28;20190;-74
2022/02/04 01:33:36;;;;;;;8.87;5.60;;;2.90;99.90;;;;;;2097419;28;20210;-74
2022/02/04 01:34:37;;;;;;;9.20;6.27;;;2.90;99.90;;;;;;2088923;28;20185;-74
2022/02/04 01:35:38;;;;;;;9.83;6.10;;;3.00;99.90;;;;;;2081004;28;20660;-75
2022/02/04 01:36:38;;;;;;;11.40;7.10;;;3.00;99.90;;;;;;2097520;28;20193;-75
2022/02/04 01:37:39;;;;;;;11.10;6.90;;;3.10;99.90;;;;;;2097483;28;20185;-75
2022/02/04 01:38:40;;;;;;;10.60;6.93;;;3.10;99.90;;;;;;2097282;28;20184;-74
2022/02/04 01:39:41;;;;;;;10.15;6.65;;;3.20;99.90;;;;;;2089143;28;20187;-74
2022/02/04 01:40:41;;;;;;;9.00;6.47;;;3.30;99.90;;;;;;2097343;28;20185;-75
2022/02/04 01:41:42;;;;;;;9.47;6.43;;;3.30;99.90;;;;;;2089028;28;20267;-75
2022/02/04 01:42:43;;;;;;;6.30;4.30;;;3.30;99.90;;;;;;2089103;28;20695;-75
2022/02/04 01:43:44;;;;;;;3.00;2.50;;;3.30;99.90;;;;;;2097336;28;20186;-77
2022/02/04 01:44:45;;;;;;;3.88;2.58;;;3.10;99.90;;;;;;2097795;28;20216;-75
2022/02/04 01:45:45;;;;;;;5.03;2.47;;;2.90;99.90;;;;;;2098063;28;20215;-75
2022/02/04 01:46:46;;;;;;;9.60;5.63;;;2.80;99.90;;;;;;2097416;28;20280;-75
2022/02/04 01:47:56;;;;;;;9.30;6.47;;;2.80;99.90;;;;;;2097485;28;20186;-74
2022/02/04 01:48:56;;;;;;;9.80;6.28;;;2.90;99.90;;;;;;2097217;28;20250;-75
2022/02/04 01:49:58;;;;;;;7.23;4.53;;;3.00;99.90;;;;;;2097536;28;20224;-74
2022/02/04 01:51:00;;;;;;;8.98;5.80;;;3.00;99.90;;;;;;2098021;28;20614;-74
2022/02/04 01:52:02;;;;;;;8.52;5.82;;;2.90;99.90;;;;;;2097259;28;20210;-75
2022/02/04 01:53:04;;;;;;;9.70;6.15;;;3.00;99.90;;;;;;2080809;28;20385;-75
2022/02/04 01:54:05;;;;;;;8.57;5.75;;;3.10;99.90;;;;;;2089512;28;20189;-75
2022/02/04 01:55:06;;;;;;;8.37;5.90;;;3.20;99.90;;;;;;2097092;28;20175;-75
2022/02/04 01:56:11;;;;;;;8.00;4.90;;;3.20;99.90;;;;;;2089071;28;20206;-74
2022/02/04 01:57:12;;;;;;;8.15;5.22;;;3.10;99.90;;;;;;2097274;28;20592;-75
2022/02/04 01:58:13;;;;;;;8.73;6.13;;;3.10;99.90;;;;;;2087898;28;20188;-75
2022/02/04 01:59:13;;;;;;;8.73;5.95;;;3.20;99.90;;;;;;2088894;28;20237;-75
2022/02/04 02:00:15;;;;;;;7.70;5.70;;;3.20;99.90;;;;;;2097228;28;20190;-75
2022/02/04 02:01:16;;;;;;;9.40;6.32;;;3.30;99.90;;;;;;2097306;28;20182;-75
2022/02/04 02:02:16;;;;;;;8.67;6.17;;;3.30;99.90;;;;;;2097306;28;20213;-75
2022/02/04 02:03:18;;;;;;;8.33;5.70;;;3.30;99.90;;;;;;2088541;28;20198;-75
2022/02/04 02:04:19;;;;;;;9.73;6.80;;;3.40;99.90;;;;;;2097097;28;20233;-75
2022/02/04 02:05:19;;;;;;;8.93;6.30;;;3.50;99.90;;;;;;2105148;28;20178;-74
2022/02/04 02:06:50;;;;;;;9.57;6.53;;;3.50;99.90;;;;;;2097169;28;20189;-74
2022/02/04 02:07:51;;;;;;;9.98;6.05;;;3.50;99.90;;;;;;2092945;28;20772;-75
2022/02/04 02:08:52;;;;;;;9.27;6.30;;;3.50;99.90;;;;;;2089515;28;20174;-75
2022/02/04 02:10:53;;;;;;;9.73;6.53;;;3.60;99.90;;;;;;2097240;28;20222;-75
2022/02/04 02:11:58;;;;;;;10.10;7.13;;;3.70;99.90;;;;;;2097741;28;20237;-74
2022/02/04 02:14:12;;;;;;;8.82;6.15;;;3.60;99.90;;;;;;2090670;28;20197;-75
2022/02/04 02:32:52;;;;;;;10.40;7.07;;;3.70;99.90;;;;;;2090781;28;20715;-75
2022/02/04 02:34:09;;;;;;;9.60;6.60;;;3.70;99.90;;;;;;2097649;28;20642;-75
2022/02/04 02:36:51;;;;;;;10.90;7.03;;;3.70;99.90;;;;;;2097082;28;20292;-75
2022/02/04 02:44:07;;;;;;;9.45;6.55;;;3.50;99.90;;;;;;2092834;28;20181;-75
2022/02/04 02:48:03;;;;;;;10.02;6.57;;;3.50;99.90;;;;;;2097227;28;20170;-75
2022/02/04 02:50:20;;;;;;;13.20;7.80;;;3.50;99.90;;;;;;2092092;28;20186;-75
2022/02/04 02:51:41;;;;;;;10.15;7.43;;;3.50;99.90;;;;;;2097032;28;20260;-75
2022/02/04 02:54:35;;;;;;;9.55;6.15;;;3.50;99.90;;;;;;2070910;28;20686;-75
2022/02/04 02:58:18;;;;;;;9.98;5.78;;;3.50;99.90;;;;;;2071727;28;20200;-76
2022/02/04 02:59:26;;;;;;;10.98;6.68;;;3.50;99.90;;;;;;2088528;28;20318;-75
2022/02/04 03:01:09;;;;;;;10.45;6.80;;;3.50;99.90;;;;;;2090022;28;20194;-75
2022/02/04 03:01:51;;;;;;;9.50;6.07;;;3.40;99.90;;;;;;2093963;28;20214;-75
2022/02/04 03:02:55;;;;;;;9.10;6.65;;;3.40;99.90;;;;;;2096900;28;20181;-75
2022/02/04 03:03:58;;;;;;;10.13;6.78;;;3.50;99.90;;;;;;2080804;28;20190;-75
2022/02/04 03:04:59;;;;;;;11.15;7.20;;;3.60;99.90;;;;;;2081048;28;20215;-75
2022/02/04 03:06:00;;;;;;;10.70;6.97;;;3.60;99.90;;;;;;2088580;28;20198;-75
2022/02/04 03:07:00;;;;;;;9.93;6.50;;;3.60;99.90;;;;;;2088427;28;20947;-75
2022/02/04 03:08:03;;;;;;;9.67;6.30;;;3.60;99.90;;;;;;2088352;28;20195;-75
2022/02/04 03:09:03;;;;;;;10.90;6.68;;;3.60;99.90;;;;;;2088244;28;20183;-75
2022/02/04 03:10:04;;;;;;;9.67;6.30;;;3.60;99.90;;;;;;2096766;28;20175;-76
2022/02/04 03:11:05;;;;;;;9.75;6.68;;;3.70;99.90;;;;;;2096675;28;20275;-75
2022/02/04 03:12:07;;;;;;;9.47;6.33;;;3.80;99.90;;;;;;2096584;28;20575;-75
2022/02/04 03:13:08;;;;;;;10.77;6.82;;;3.70;99.90;;;;;;2096685;28;20315;-75
2022/02/04 03:14:08;;;;;;;9.23;6.80;;;3.80;99.90;;;;;;2096704;28;20183;-75
2022/02/04 03:15:10;;;;;;;9.90;5.97;;;3.70;99.90;;;;;;2096571;28;20188;-75
2022/02/04 03:16:15;;;;;;;10.68;6.75;;;3.60;99.90;;;;;;2088452;28;20545;-76
2022/02/04 03:17:16;;;;;;;10.63;6.57;;;3.60;99.90;;;;;;2080654;28;20191;-75
2022/02/04 03:18:23;;;;;;;8.13;5.97;;;3.70;99.90;;;;;;2088865;28;20183;-75
2022/02/04 03:19:25;;;;;;;9.00;6.13;;;3.80;99.90;;;;;;2096564;28;20229;-75
2022/02/04 03:20:26;;;;;;;9.60;5.93;;;3.80;99.90;;;;;;2096603;28;20185;-75
2022/02/04 03:21:35;;;;;;;9.13;5.65;;;3.90;99.90;;;;;;2096495;28;20211;-75
2022/02/04 03:22:37;;;;;;;9.30;5.70;;;3.80;99.90;;;;;;2096952;28;20199;-75
2022/02/04 03:23:40;;;;;;;8.77;5.60;;;3.80;99.90;;;;;;2096665;28;20186;-75
2022/02/04 03:24:44;;;;;;;9.93;6.10;;;3.90;99.90;;;;;;2088371;28;20214;-75
2022/02/04 03:25:50;;;;;;;9.48;5.70;;;3.80;99.90;;;;;;2088863;28;20187;-75
2022/02/04 03:26:56;;;;;;;10.98;5.00;;;3.80;99.90;;;;;;2096544;28;20213;-75
2022/02/04 03:27:59;;;;;;;7.13;5.30;;;3.70;99.90;;;;;;2089602;28;20171;-75
2022/02/04 03:29:02;;;;;;;8.05;5.05;;;3.60;99.90;;;;;;2096708;28;20256;-74
2022/02/04 03:30:09;;;;;;;8.85;5.00;;;3.50;99.90;;;;;;2096618;28;20734;-74
2022/02/04 03:31:10;;;;;;;10.18;5.60;;;3.50;99.90;;;;;;2089351;28;20184;-74
2022/02/04 03:32:13;;;;;;;7.73;5.33;;;3.50;99.90;;;;;;2089685;28;20543;-75
2022/02/04 03:33:17;;;;;;;8.27;4.95;;;3.60;99.90;;;;;;2096791;28;20647;-75
2022/02/04 03:34:18;;;;;;;10.05;6.00;;;3.70;99.90;;;;;;2089123;28;20207;-75
2022/02/04 03:35:21;;;;;;;7.57;5.20;;;3.80;99.90;;;;;;2080542;28;20187;-74
2022/02/04 03:36:22;;;;;;;8.57;5.82;;;3.80;99.90;;;;;;2080742;28;20181;-75
2022/02/04 03:37:22;;;;;;;9.33;5.40;;;3.80;99.90;;;;;;2088651;28;20183;-75
2022/02/04 03:38:23;;;;;;;9.17;5.80;;;3.80;99.90;;;;;;2096607;28;20600;-75
2022/02/04 03:39:24;;;;;;;9.93;5.97;;;3.80;99.90;;;;;;2088263;28;20246;-75
2022/02/04 03:40:25;;;;;;;7.87;5.00;;;3.70;99.90;;;;;;2088481;28;20186;-75
2022/02/04 03:41:26;;;;;;;6.70;5.05;;;3.60;99.90;;;;;;2097123;28;20190;-75
2022/02/04 03:42:27;;;;;;;8.47;5.60;;;3.60;99.90;;;;;;2097474;28;20663;-75
2022/02/04 03:43:27;;;;;;;9.00;5.07;;;3.60;99.90;;;;;;2088078;28;20186;-75
2022/02/04 03:44:28;;;;;;;9.83;5.80;;;3.50;99.90;;;;;;2088143;28;20178;-75
2022/02/04 03:45:29;;;;;;;9.60;5.67;;;3.50;99.90;;;;;;2096625;28;20179;-75
2022/02/04 03:46:29;;;;;;;7.53;5.27;;;3.50;99.90;;;;;;2088290;28;20195;-75
2022/02/04 03:47:30;;;;;;;8.07;5.27;;;3.50;99.90;;;;;;2096551;28;20189;-75
2022/02/04 03:48:32;;;;;;;8.30;5.47;;;3.50;99.90;;;;;;2088101;28;20309;-75
2022/02/04 03:49:33;;;;;;;8.77;5.60;;;3.50;99.90;;;;;;2085623;28;20192;-75
2022/02/04 03:50:33;;;;;;;7.60;5.30;;;3.40;99.90;;;;;;2096346;28;20183;-76
2022/02/04 03:51:34;;;;;;;8.20;5.67;;;3.40;99.90;;;;;;2099469;28;20192;-75
2022/02/04 03:52:37;;;;;;;7.50;5.17;;;3.40;99.90;;;;;;2105013;28;20265;-75
2022/02/04 03:53:38;;;;;;;5.68;4.47;;;3.40;99.90;;;;;;2104943;28;20189;-76
2022/02/04 03:54:39;;;;;;;7.80;4.90;;;3.50;99.90;;;;;;2096382;28;20638;-75
2022/02/04 03:55:40;;;;;;;6.97;4.90;;;3.50;99.90;;;;;;2092734;28;20187;-75
2022/02/04 03:56:40;;;;;;;6.13;4.97;;;3.50;99.90;;;;;;2096509;28;20284;-75
2022/02/04 03:57:41;;;;;;;6.90;4.70;;;3.50;99.90;;;;;;2096561;28;20599;-75
2022/02/04 03:58:42;;;;;;;6.43;4.75;;;3.60;99.90;;;;;;2096475;28;20622;-75
2022/02/04 03:59:43;;;;;;;7.50;4.87;;;3.70;99.90;;;;;;2096409;28;20244;-75
2022/02/04 04:00:44;;;;;;;7.95;4.75;;;3.80;99.90;;;;;;2096469;28;20199;-75
2022/02/04 04:01:44;;;;;;;7.77;4.87;;;3.80;99.90;;;;;;2096602;28;20206;-75
2022/02/04 04:02:47;;;;;;;7.53;4.80;;;3.90;99.90;;;;;;2097293;28;20182;-75
2022/02/04 04:03:48;;;;;;;6.20;4.45;;;3.90;99.90;;;;;;2096556;28;20844;-75
2022/02/04 04:04:48;;;;;;;6.80;4.70;;;3.80;99.90;;;;;;2096242;28;20207;-75
2022/02/04 04:05:50;;;;;;;7.50;4.87;;;3.90;99.90;;;;;;2096460;28;20941;-75
2022/02/04 04:06:51;;;;;;;6.07;4.18;;;3.90;99.90;;;;;;2104651;28;20300;-75
2022/02/04 04:07:52;;;;;;;5.40;3.93;;;3.80;99.90;;;;;;2096310;28;20564;-75
2022/02/04 04:08:54;;;;;;;6.10;4.00;;;3.90;99.90;;;;;;2096488;28;20225;-75
2022/02/04 04:10:07;;;;;;;6.82;4.40;;;3.80;99.90;;;;;;2096995;28;20197;-75
2022/02/04 04:11:08;;;;;;;5.05;3.90;;;3.80;99.90;;;;;;2097120;28;20165;-75
2022/02/04 04:12:09;;;;;;;5.33;3.67;;;3.70;99.90;;;;;;2104614;28;20198;-75
2022/02/04 04:13:12;;;;;;;5.63;4.10;;;3.60;99.90;;;;;;2096552;28;20257;-75
2022/02/04 04:14:14;;;;;;;6.47;4.20;;;3.60;99.90;;;;;;2096497;28;20235;-75
2022/02/04 04:15:16;;;;;;;5.68;3.63;;;3.70;99.90;;;;;;2095924;28;20168;-75
2022/02/04 04:16:19;;;;;;;6.20;4.55;;;3.70;99.90;;;;;;2096334;28;20189;-75
2022/02/04 04:17:20;;;;;;;4.78;3.88;;;3.70;99.90;;;;;;2080309;28;20654;-75
2022/02/04 04:18:21;;;;;;;4.78;3.63;;;3.80;99.90;;;;;;2080257;28;20180;-75
2022/02/04 04:19:22;;;;;;;5.40;4.03;;;3.80;99.90;;;;;;2088139;28;20180;-75
2022/02/04 04:20:26;;;;;;;6.20;4.10;;;3.80;99.90;;;;;;2096340;28;20259;-75
2022/02/04 04:21:26;;;;;;;5.18;3.85;;;3.70;99.90;;;;;;2096933;28;20183;-74
2022/02/04 04:22:27;;;;;;;6.60;3.90;;;3.60;99.90;;;;;;2097839;28;20262;-74
2022/02/04 04:23:28;;;;;;;5.43;4.17;;;3.70;99.90;;;;;;2098680;28;20184;-75
2022/02/04 04:24:29;;;;;;;6.00;4.15;;;3.60;99.90;;;;;;2097781;28;20178;-75
2022/02/04 04:25:30;;;;;;;5.80;4.10;;;3.60;99.90;;;;;;2089758;28;20187;-74
2022/02/04 04:26:30;;;;;;;5.53;3.87;;;3.70;99.90;;;;;;2097924;28;20182;-75
2022/02/04 04:27:32;;;;;;;6.03;3.80;;;3.60;99.90;;;;;;2098059;28;20212;-75
2022/02/04 04:28:32;;;;;;;5.72;3.58;;;3.60;99.90;;;;;;2089658;28;20190;-75
2022/02/04 04:29:33;;;;;;;5.57;4.00;;;3.70;99.90;;;;;;2097977;28;20960;-75
2022/02/04 04:30:34;;;;;;;5.83;4.53;;;3.70;99.90;;;;;;2089659;28;20191;-75
2022/02/04 04:31:35;;;;;;;8.13;4.57;;;3.70;99.90;;;;;;2081323;28;20181;-75
2022/02/04 04:32:35;;;;;;;4.90;3.77;;;3.50;99.90;;;;;;2089673;28;20261;-75
2022/02/04 04:33:36;;;;;;;5.07;3.90;;;3.50;99.90;;;;;;2089784;28;20191;-74
2022/02/04 04:34:37;;;;;;;5.20;3.60;;;3.50;99.90;;;;;;2097933;28;20179;-76
2022/02/04 04:35:39;;;;;;;5.63;3.90;;;3.50;99.90;;;;;;2098758;28;20187;-74
2022/02/04 04:36:39;;;;;;;4.82;3.90;;;3.40;99.90;;;;;;2106355;28;20225;-74
2022/02/04 04:37:59;;;;;;;4.57;3.60;;;3.40;99.90;;;;;;2098046;28;20679;-74
2022/02/04 04:39:10;;;;;;;5.28;3.75;;;3.40;99.90;;;;;;2089579;28;20864;-75
2022/02/04 04:40:30;;;;;;;4.55;3.58;;;3.50;99.90;;;;;;2086576;28;20713;-74
2022/02/04 04:45:20;;;;;;;5.28;4.05;;;3.50;99.90;;;;;;2097881;28;20726;-74
2022/02/04 05:29:33;;;;;;;9.98;6.32;;;3.80;99.90;;;;;;2094332;28;20163;-74
2022/02/04 05:30:34;;;;;;;7.83;5.90;;;3.80;99.90;;;;;;2097595;28;20183;-75
2022/02/04 05:31:35;;;;;;;7.83;5.57;;;3.80;99.90;;;;;;2097572;28;20343;-74
2022/02/04 05:32:36;;;;;;;7.67;5.30;;;3.80;99.90;;;;;;2097621;28;20613;-74
2022/02/04 05:33:36;;;;;;;6.67;5.20;;;3.70;99.90;;;;;;2097474;28;20783;-74
2022/02/04 05:34:38;;;;;;;7.10;4.43;;;3.70;99.90;;;;;;2089096;28;20290;-74
2022/02/04 05:35:39;;;;;;;8.30;4.90;;;3.70;99.90;;;;;;2080969;28;20298;-75
2022/02/04 05:36:44;;;;;;;7.50;4.80;;;3.80;99.90;;;;;;2089505;28;20553;-75
2022/02/04 05:37:48;;;;;;;7.45;5.15;;;3.80;99.90;;;;;;2097522;28;20692;-74
2022/02/04 05:38:51;;;;;;;5.93;4.57;;;3.80;99.90;;;;;;2090020;28;20270;-74
2022/02/04 05:39:59;;;;;;;8.10;4.53;;;3.80;99.90;;;;;;2090023;28;20190;-74
2022/02/04 05:41:00;;;;;;;6.75;4.97;;;3.70;99.90;;;;;;2090329;28;20229;-74
2022/02/04 05:42:03;;;;;;;5.20;3.80;;;3.60;99.90;;;;;;2097820;28;20720;-74
2022/02/04 05:43:16;;;;;;;7.30;4.63;;;3.60;99.90;;;;;;2098100;28;20193;-74
2022/02/04 05:44:18;;;;;;;6.95;4.15;;;3.60;99.90;;;;;;2097209;28;20170;-75
2022/02/04 05:45:24;;;;;;;5.65;4.32;;;3.60;99.90;;;;;;2082128;28;20230;-75
2022/02/04 05:46:32;;;;;;;5.93;4.35;;;3.50;99.90;;;;;;2090092;28;20247;-74
2022/02/04 05:47:34;;;;;;;5.85;4.18;;;3.50;99.90;;;;;;2098163;28;20163;-76
2022/02/04 05:48:37;;;;;;;6.07;4.18;;;3.60;99.90;;;;;;2097916;28;20185;-74
2022/02/04 05:49:43;;;;;;;5.90;4.18;;;3.70;99.90;;;;;;2098076;28;20187;-75
2022/02/04 05:51:32;;;;;;;7.93;4.57;;;3.80;99.90;;;;;;2089616;28;20258;-75
2022/02/04 05:52:17;;;;;;;6.25;4.40;;;3.80;99.90;;;;;;2085033;28;20686;-75
2022/02/04 05:53:22;;;;;;;7.75;4.40;;;3.70;99.90;;;;;;2097561;28;20254;-74
2022/02/04 05:55:28;;;;;;;6.18;4.10;;;3.70;99.90;;;;;;2091009;28;20172;-74
2022/02/04 05:57:11;;;;;;;6.40;4.00;;;3.60;99.90;;;;;;2097042;28;20224;-75
2022/02/04 05:58:27;;;;;;;5.90;3.80;;;3.60;99.90;;;;;;2097974;28;20635;-75
2022/02/04 05:59:46;;;;;;;5.57;4.20;;;3.40;99.90;;;;;;2105523;28;20187;-74
2022/02/04 06:00:59;;;;;;;7.00;4.60;;;3.30;99.90;;;;;;2097390;28;20224;-73
2022/02/04 06:02:20;;;;;;;6.43;4.22;;;3.30;99.90;;;;;;2097346;28;20576;-74
2022/02/04 06:08:23;;;;;;;4.78;3.40;;;3.50;99.90;;;;;;2096786;28;20279;-75
2022/02/04 06:11:42;;;;;;;4.97;3.28;;;3.60;99.90;;;;;;2097151;28;20300;-74
2022/02/04 06:13:33;;;;;;;6.53;4.53;;;3.60;99.90;;;;;;2097369;28;20190;-75
2022/02/04 06:23:27;;;;;;;7.00;4.30;;;3.40;99.90;;;;;;2075536;28;20190;-75
2022/02/04 06:24:28;;;;;;;5.83;3.67;;;3.50;99.90;;;;;;2097214;28;20183;-74
2022/02/04 06:25:28;;;;;;;4.30;3.20;;;3.40;99.90;;;;;;2097815;28;20185;-75
2022/02/04 06:26:31;;;;;;;4.33;3.10;;;3.50;99.90;;;;;;2097143;28;20549;-74
2022/02/04 06:27:31;;;;;;;5.72;3.42;;;3.60;99.90;;;;;;2088924;28;20915;-74
2022/02/04 06:28:35;;;;;;;5.37;3.63;;;3.60;99.90;;;;;;2088738;28;20188;-74
2022/02/04 06:29:36;;;;;;;7.30;4.82;;;3.60;99.90;;;;;;2089024;28;20175;-74
2022/02/04 06:30:39;;;;;;;7.28;4.95;;;3.50;99.90;;;;;;2089123;28;20187;-74
2022/02/04 06:31:41;;;;;;;7.47;4.88;;;3.50;99.90;;;;;;2088801;28;20364;-75
2022/02/04 06:32:41;;;;;;;7.03;4.50;;;3.60;99.90;;;;;;2089199;28;20176;-74
2022/02/04 06:33:43;;;;;;;5.30;3.67;;;3.80;99.90;;;;;;2097113;28;20220;-74
2022/02/04 06:34:45;;;;;;;7.65;4.88;;;3.90;99.90;;;;;;2096784;28;20190;-75
2022/02/04 06:35:46;;;;;;;5.15;3.65;;;3.90;99.90;;;;;;2088960;28;20656;-75
2022/02/04 06:36:47;;;;;;;10.90;6.05;;;3.90;99.90;;;;;;2088884;28;20184;-75
2022/02/04 06:37:48;;;;;;;10.43;6.27;;;3.90;99.90;;;;;;2088787;28;20189;-74
2022/02/04 06:38:50;;;;;;;7.40;4.30;;;3.90;99.90;;;;;;2088703;28;20178;-74
2022/02/04 06:39:50;;;;;;;5.93;3.63;;;3.90;99.90;;;;;;2080561;28;20246;-74
2022/02/04 06:40:51;;;;;;;5.30;3.50;;;3.90;99.90;;;;;;2088688;28;20696;-75
2022/02/04 06:41:52;;;;;;;6.33;3.40;;;4.00;99.90;;;;;;2096852;28;20700;-74
2022/02/04 06:42:55;;;;;;;5.30;3.50;;;4.00;99.90;;;;;;2097608;28;20540;-74
2022/02/04 06:43:55;;;;;;;5.15;3.78;;;3.90;99.90;;;;;;2097135;28;20267;-74
2022/02/04 06:44:59;;;;;;;6.93;4.10;;;3.90;99.90;;;;;;2096640;28;20210;-74
2022/02/04 06:46:00;;;;;;;6.63;4.28;;;3.90;99.90;;;;;;2089037;28;20180;-75
2022/02/04 06:47:00;;;;;;;5.47;3.50;;;3.90;99.90;;;;;;2080663;28;20200;-74
2022/02/04 06:48:01;;;;;;;5.53;3.90;;;3.90;99.90;;;;;;2088084;28;20279;-75
2022/02/04 06:49:02;;;;;;;6.73;4.10;;;3.90;99.90;;;;;;2079817;28;20189;-74
2022/02/04 06:50:03;;;;;;;10.90;5.97;;;3.90;99.90;;;;;;2095153;28;20188;-74
2022/02/04 06:51:04;;;;;;;11.18;5.60;;;4.00;99.90;;;;;;2097861;28;20507;-74
2022/02/04 06:52:05;;;;;;;11.27;6.33;;;4.00;99.90;;;;;;2096293;28;20206;-74
2022/02/04 06:53:06;;;;;;;8.07;4.93;;;4.00;99.90;;;;;;2097558;28;20179;-74
2022/02/04 06:54:06;;;;;;;8.70;4.77;;;4.00;99.90;;;;;;2089920;28;20187;-75
2022/02/04 06:55:07;;;;;;;9.30;5.40;;;3.90;99.90;;;;;;2088143;28;20191;-74
2022/02/04 06:56:08;;;;;;;8.15;5.00;;;3.90;99.90;;;;;;2080357;28;20207;-74
2022/02/04 06:57:09;;;;;;;7.13;4.10;;;4.00;99.90;;;;;;2080433;28;20184;-74
2022/02/04 06:58:11;;;;;;;7.77;5.33;;;4.00;99.90;;;;;;2080264;28;20246;-74
2022/02/04 06:59:12;;;;;;;7.35;4.72;;;3.90;99.90;;;;;;2080239;28;20430;-73
2022/02/04 07:00:15;;;;;;;6.57;4.50;;;4.00;99.90;;;;;;2080586;28;20180;-74
2022/02/04 07:01:16;;;;;;;9.52;4.53;;;3.90;99.90;;;;;;2080710;28;20184;-74
2022/02/04 07:02:17;;;;;;;7.80;4.53;;;3.90;99.90;;;;;;2088315;28;20548;-73
2022/02/04 07:03:17;;;;;;;8.57;5.17;;;4.00;99.90;;;;;;2080257;28;20205;-74
2022/02/04 07:04:18;;;;;;;6.97;4.30;;;4.00;99.90;;;;;;2071670;28;20185;-74
2022/02/04 07:05:20;;;;;;;10.23;6.10;;;4.00;99.90;;;;;;2088651;28;20180;-73
2022/02/04 07:06:21;;;;;;;7.97;5.05;;;4.00;99.90;;;;;;2088480;28;20236;-74
2022/02/04 07:07:22;;;;;;;7.03;4.80;;;4.00;99.90;;;;;;2080376;28;20733;-73
2022/02/04 07:09:01;;;;;;;6.43;4.27;;;4.00;99.90;;;;;;2088520;28;20582;-74
2022/02/04 07:09:56;;;;;;;5.60;3.85;;;4.00;99.90;;;;;;2082268;28;20694;-73
2022/02/04 07:12:25;;;;;;;7.63;5.10;;;4.00;99.90;;;;;;2084683;28;20203;-74
2022/02/04 07:13:37;;;;;;;6.68;4.20;;;4.20;99.90;;;;;;2084021;28;20549;-73
2022/02/04 07:16:20;;;;;;;10.60;6.13;;;4.10;99.90;;;;;;2078602;28;20188;-73
2022/02/04 07:17:32;;;;;;;4.15;2.90;;;4.10;99.90;;;;;;2085315;28;20198;-73
2022/02/04 07:19:46;;;;;;;10.00;5.13;;;3.80;99.90;;;;;;2082431;28;20191;-73
2022/02/04 07:20:47;;;;;;;6.70;4.32;;;3.80;99.90;;;;;;2081878;28;20191;-74
2022/02/04 07:21:47;;;;;;;8.10;4.97;;;3.90;99.90;;;;;;2080106;28;20686;-73
2022/02/04 07:22:48;;;;;;;7.27;4.37;;;3.90;99.90;;;;;;2088444;28;20183;-73
2022/02/04 07:23:49;;;;;;;6.83;4.23;;;3.90;99.90;;;;;;2088887;28;20740;-73
2022/02/04 07:24:53;;;;;;;7.97;4.50;;;3.90;99.90;;;;;;2088000;28;20213;-73
2022/02/04 07:25:54;;;;;;;6.95;5.07;;;4.00;99.90;;;;;;2080689;28;20185;-74
2022/02/04 07:26:54;;;;;;;8.27;5.50;;;3.90;99.90;;;;;;2080412;28;20188;-73
2022/02/04 07:27:55;;;;;;;7.67;5.30;;;3.90;99.90;;;;;;2071853;28;20180;-74
2022/02/04 07:28:57;;;;;;;6.60;4.07;;;3.80;99.90;;;;;;2071740;28;20643;-73
2022/02/04 07:29:58;;;;;;;5.15;3.95;;;3.80;99.90;;;;;;2080308;28;20182;-74
2022/02/04 07:31:01;;;;;;;6.05;4.28;;;3.80;99.90;;;;;;2071936;28;20678;-73
2022/02/04 07:32:11;;;;;;;9.23;5.93;;;3.80;99.90;;;;;;2072683;28;20205;-73
2022/02/04 07:33:17;;;;;;;7.30;4.50;;;3.80;99.90;;;;;;2081775;28;20168;-73
2022/02/04 07:41:54;;;;;;;6.07;4.32;;;3.70;99.90;;;;;;2082545;28;20299;-73
2022/02/04 07:42:55;;;;;;;7.10;4.30;;;3.90;99.90;;;;;;2082647;28;20196;-73
2022/02/04 07:43:56;;;;;;;7.17;4.30;;;3.80;99.90;;;;;;2080065;28;20708;-74
2022/02/04 07:44:56;;;;;;;7.07;4.43;;;3.80;99.90;;;;;;2079580;28;20591;-73
2022/02/04 07:45:58;;;;;;;6.57;3.70;;;3.80;99.90;;;;;;2079978;28;20235;-73
2022/02/04 07:46:59;;;;;;;7.18;4.13;;;3.80;99.90;;;;;;2088387;28;20284;-73
2022/02/04 07:48:01;;;;;;;6.63;4.10;;;3.90;99.90;;;;;;2088109;28;20373;-74
2022/02/04 07:49:02;;;;;;;6.93;3.95;;;3.90;99.90;;;;;;2079976;28;20173;-74
2022/02/04 07:50:05;;;;;;;7.45;4.20;;;4.00;99.90;;;;;;2080121;28;20176;-73
2022/02/04 07:51:06;;;;;;;6.45;4.60;;;4.00;99.90;;;;;;2080265;28;20189;-74
2022/02/04 07:52:07;;;;;;;5.65;3.63;;;4.10;99.90;;;;;;2071866;28;20197;-73
2022/02/04 07:53:07;;;;;;;6.87;4.40;;;4.10;99.90;;;;;;2072045;28;20183;-73
2022/02/04 07:54:09;;;;;;;8.17;4.40;;;4.10;99.90;;;;;;2088258;28;20663;-74
2022/02/04 07:55:09;;;;;;;7.40;4.40;;;4.20;99.90;;;;;;2088620;28;20188;-73
2022/02/04 07:56:10;;;;;;;6.87;4.10;;;4.30;99.90;;;;;;2088456;28;20233;-73
2022/02/04 07:57:11;;;;;;;7.07;4.57;;;4.30;99.90;;;;;;2090030;28;20718;-74
2022/02/04 07:58:14;;;;;;;7.20;4.30;;;4.20;99.90;;;;;;2090016;28;20672;-73
2022/02/04 07:59:15;;;;;;;8.77;5.43;;;4.20;99.90;;;;;;2089687;28;20191;-73
2022/02/04 08:00:17;;;;;;;6.63;5.00;;;4.10;99.90;;;;;;2082513;28;20185;-73
2022/02/04 08:01:24;;;;;;;7.78;5.30;;;4.20;99.90;;;;;;2074726;28;20188;-74
2022/02/04 08:02:24;;;;;;;5.53;4.18;;;4.00;99.90;;;;;;2080527;28;20180;-73
2022/02/04 08:03:33;;;;;;;6.70;3.67;;;4.20;99.90;;;;;;2074375;28;20199;-74
2022/02/04 08:04:36;;;;;;;7.57;3.85;;;4.30;99.90;;;;;;2082367;28;20176;-74
2022/02/04 08:05:37;;;;;;;6.97;4.50;;;4.20;99.90;;;;;;2083442;28;20183;-73
2022/02/04 08:06:42;;;;;;;6.23;3.27;;;4.20;99.90;;;;;;2082050;28;20554;-73
2022/02/04 08:07:52;;;;;;;3.63;2.63;;;4.20;99.90;;;;;;2090645;28;20168;-73
2022/02/04 08:09:00;;;;;;;4.72;2.90;;;4.10;99.90;;;;;;2083251;28;20717;-74
2022/02/04 08:10:21;;;;;;;3.13;2.00;;;4.20;99.90;;;;;;2092280;28;20175;-73
2022/02/04 08:12:43;;;;;;;2.75;2.13;;;4.00;99.90;;;;;;2098141;28;20199;-73
2022/02/04 08:14:59;;;;;;;2.72;1.67;;;4.00;99.90;;;;;;2098103;28;20275;-73
2022/02/04 08:18:26;;;;;;;1.93;1.53;;;4.20;99.90;;;;;;2098355;28;20266;-73
2022/02/04 08:22:38;;;;;;;1.95;1.77;;;4.40;99.90;;;;;;2098518;28;20920;-74
2022/02/04 08:24:06;;;;;;;1.50;1.30;;;4.30;99.90;;;;;;2098745;28;20168;-74
2022/02/04 08:25:22;;;;;;;2.45;1.85;;;4.30;99.90;;;;;;2097293;28;20227;-74
2022/02/04 08:30:06;;;;;;;2.42;1.30;;;4.60;99.90;;;;;;2091919;28;20256;-73
2022/02/04 08:35:03;;;;;;;1.88;1.17;;;4.50;99.90;;;;;;2098237;28;20164;-73
2022/02/04 08:36:25;;;;;;;1.20;1.10;;;4.60;99.90;;;;;;2097904;28;20194;-73
2022/02/04 08:37:51;;;;;;;2.33;1.20;;;4.60;99.90;;;;;;2095326;28;20614;-74
2022/02/04 08:39:09;;;;;;;0.90;0.85;;;4.60;99.90;;;;;;2089373;28;20268;-73
2022/02/04 08:53:33;;;;;;;1.08;0.80;;;4.50;99.90;;;;;;2098403;28;20198;-73
2022/02/04 08:54:33;;;;;;;1.30;1.00;;;4.50;99.90;;;;;;2097179;28;20204;-73